sensor_id;sensor_type;location;lat;lon;timestamp;pressure;altitude;pressure_sealevel;temperature;humidity
20394;BME280;10356;50.544;9.642;2023-09-19T00:01:29;97623.22;;;16.44;100.00
20394;BME280;10356;50.544;9.642;2023-09-19T00:03:58;97631.00;;;16.38;100.00
20394;BME280;10356;50.544;9.642;2023-09-19T00:06:25;97628.34;;;16.46;100.00
20394;BME280;10356;50.544;9.642;2023-09-19T00:08:57;97631.28;;;16.51;100.00
20394;BME280;10356;50.544;9.642;2023-09-19T00:11:24;97629.97;;;16.47;100.00
20394;BME280;10356;50.544;9.642;2023-09-19T00:13:51;97637.38;;;16.51;100.00
20394;BME280;10356;50.544;9.642;2023-09-19T00:16:18;97638.84;;;16.46;100.00
20394;BME280;10356;50.544;9.642;2023-09-19T00:18:45;97633.78;;;16.36;100.00
20394;BME280;10356;50.544;9.642;2023-09-19T00:21:12;97633.63;;;16.38;100.00
20394;BME280;10356;50.544;9.642;2023-09-19T00:23:40;97634.59;;;16.37;100.00
20394;BME280;10356;50.544;9.642;2023-09-19T00:26:07;97632.63;;;16.39;100.00
20394;BME280;10356;50.544;9.642;2023-09-19T00:28:33;97637.84;;;16.47;100.00
20394;BME280;10356;50.544;9.642;2023-09-19T00:31:00;97643.41;;;16.68;100.00
20394;BME280;10356;50.544;9.642;2023-09-19T00:33:27;97631.03;;;16.68;100.00
20394;BME280;10356;50.544;9.642;2023-09-19T00:35:55;97650.63;;;16.66;100.00
20394;BME280;10356;50.544;9.642;2023-09-19T00:38:24;97642.75;;;16.66;100.00
20394;BME280;10356;50.544;9.642;2023-09-19T00:40:53;97649.44;;;16.68;100.00
20394;BME280;10356;50.544;9.642;2023-09-19T00:43:20;97658.63;;;16.72;100.00
20394;BME280;10356;50.544;9.642;2023-09-19T00:45:49;97662.94;;;16.73;100.00
20394;BME280;10356;50.544;9.642;2023-09-19T00:48:16;97662.59;;;16.76;100.00
20394;BME280;10356;50.544;9.642;2023-09-19T00:50:45;97661.13;;;16.74;100.00
20394;BME280;10356;50.544;9.642;2023-09-19T00:53:14;97661.13;;;16.74;100.00
20394;BME280;10356;50.544;9.642;2023-09-19T00:55:45;97667.03;;;16.76;100.00
20394;BME280;10356;50.544;9.642;2023-09-19T00:58:11;97665.06;;;16.78;100.00
20394;BME280;10356;50.544;9.642;2023-09-19T01:00:38;97668.47;;;16.87;100.00
20394;BME280;10356;50.544;9.642;2023-09-19T01:03:06;97656.09;;;16.87;100.00
20394;BME280;10356;50.544;9.642;2023-09-19T01:05:33;97669.97;;;16.81;100.00
20394;BME280;10356;50.544;9.642;2023-09-19T01:08:01;97668.63;;;16.85;100.00
20394;BME280;10356;50.544;9.642;2023-09-19T01:10:27;97673.56;;;16.88;100.00
20394;BME280;10356;50.544;9.642;2023-09-19T01:13:03;97675.03;;;16.91;100.00
20394;BME280;10356;50.544;9.642;2023-09-19T01:15:39;97686.50;;;16.98;100.00
20394;BME280;10356;50.544;9.642;2023-09-19T01:18:20;97690.88;;;17.05;100.00
20394;BME280;10356;50.544;9.642;2023-09-19T01:20:55;97691.19;;;17.10;100.00
20394;BME280;10356;50.544;9.642;2023-09-19T01:23:34;97699.09;;;17.10;100.00
20394;BME280;10356;50.544;9.642;2023-09-19T01:26:07;97698.41;;;17.16;100.00
20394;BME280;10356;50.544;9.642;2023-09-19T01:28:51;97693.66;;;17.12;100.00
20394;BME280;10356;50.544;9.642;2023-09-19T01:31:22;97691.38;;;17.09;100.00
20394;BME280;10356;50.544;9.642;2023-09-19T01:33:57;97698.13;;;17.03;100.00
20394;BME280;10356;50.544;9.642;2023-09-19T01:36:26;97695.53;;;16.95;100.00
20394;BME280;10356;50.544;9.642;2023-09-19T01:38:53;97697.84;;;16.98;100.00
20394;BME280;10356;50.544;9.642;2023-09-19T01:41:26;97697.38;;;16.95;100.00
20394;BME280;10356;50.544;9.642;2023-09-19T01:43:55;97688.19;;;16.91;100.00
20394;BME280;10356;50.544;9.642;2023-09-19T01:46:25;97699.84;;;16.96;100.00
20394;BME280;10356;50.544;9.642;2023-09-19T01:49:06;97706.03;;;17.03;100.00
20394;BME280;10356;50.544;9.642;2023-09-19T01:51:42;97697.84;;;16.98;100.00
20394;BME280;10356;50.544;9.642;2023-09-19T01:54:13;97704.44;;;16.94;100.00
20394;BME280;10356;50.544;9.642;2023-09-19T01:56:48;97714.31;;;16.92;100.00
20394;BME280;10356;50.544;9.642;2023-09-19T01:59:22;97709.75;;;16.86;100.00
20394;BME280;10356;50.544;9.642;2023-09-19T02:01:52;97706.94;;;16.88;100.00
20394;BME280;10356;50.544;9.642;2023-09-19T02:04:19;97710.72;;;16.85;100.00
20394;BME280;10356;50.544;9.642;2023-09-19T02:06:45;97718.94;;;16.90;100.00
20394;BME280;10356;50.544;9.642;2023-09-19T02:09:12;97714.31;;;16.92;100.00
20394;BME280;10356;50.544;9.642;2023-09-19T02:11:39;97714.84;;;16.88;100.00
20394;BME280;10356;50.544;9.642;2023-09-19T02:14:06;97714.63;;;16.97;100.00
20394;BME280;10356;50.544;9.642;2023-09-19T02:16:33;97721.88;;;16.95;100.00
20394;BME280;10356;50.544;9.642;2023-09-19T02:19:01;97734.56;;;16.92;100.00
20394;BME280;10356;50.544;9.642;2023-09-19T02:21:30;97727.50;;;16.92;100.00
20394;BME280;10356;50.544;9.642;2023-09-19T02:23:57;97727.13;;;16.95;100.00
20394;BME280;10356;50.544;9.642;2023-09-19T02:26:24;97729.75;;;16.95;100.00
20394;BME280;10356;50.544;9.642;2023-09-19T02:28:50;97733.72;;;16.91;100.00
20394;BME280;10356;50.544;9.642;2023-09-19T02:31:18;97736.34;;;16.91;100.00
20394;BME280;10356;50.544;9.642;2023-09-19T02:33:44;97733.25;;;16.88;100.00
20394;BME280;10356;50.544;9.642;2023-09-19T02:36:12;97742.66;;;16.82;100.00
20394;BME280;10356;50.544;9.642;2023-09-19T02:38:42;97745.47;;;16.72;100.00
20394;BME280;10356;50.544;9.642;2023-09-19T02:41:08;97744.03;;;16.62;100.00
20394;BME280;10356;50.544;9.642;2023-09-19T02:43:35;97749.44;;;16.60;100.00
20394;BME280;10356;50.544;9.642;2023-09-19T02:46:02;97748.81;;;16.50;100.00
20394;BME280;10356;50.544;9.642;2023-09-19T02:48:29;97747.00;;;16.43;100.00
20394;BME280;10356;50.544;9.642;2023-09-19T02:50:57;97754.06;;;16.42;96.85
20394;BME280;10356;50.544;9.642;2023-09-19T02:53:25;97760.00;;;16.36;95.95
20394;BME280;10356;50.544;9.642;2023-09-19T02:55:52;97767.09;;;16.28;96.27
20394;BME280;10356;50.544;9.642;2023-09-19T02:58:19;97773.81;;;16.22;95.80
20394;BME280;10356;50.544;9.642;2023-09-19T03:00:46;97778.41;;;16.12;95.70
20394;BME280;10356;50.544;9.642;2023-09-19T03:03:12;97772.00;;;16.07;93.67
20394;BME280;10356;50.544;9.642;2023-09-19T03:05:40;97770.03;;;16.01;93.50
20394;BME280;10356;50.544;9.642;2023-09-19T03:08:12;97772.66;;;15.92;94.77
20394;BME280;10356;50.544;9.642;2023-09-19T03:10:41;97772.84;;;15.91;95.17
20394;BME280;10356;50.544;9.642;2023-09-19T03:13:07;97773.16;;;15.88;94.16
20394;BME280;10356;50.544;9.642;2023-09-19T03:15:35;97772.50;;;15.86;94.45
20394;BME280;10356;50.544;9.642;2023-09-19T03:18:04;97775.28;;;15.84;94.43
20394;BME280;10356;50.544;9.642;2023-09-19T03:20:31;97782.50;;;15.82;93.74
20394;BME280;10356;50.544;9.642;2023-09-19T03:22:57;97775.63;;;15.81;93.43
20394;BME280;10356;50.544;9.642;2023-09-19T03:25:25;97775.63;;;15.81;93.13
20394;BME280;10356;50.544;9.642;2023-09-19T03:27:56;97786.81;;;15.83;91.48
20394;BME280;10356;50.544;9.642;2023-09-19T03:30:23;97791.69;;;15.78;91.38
20394;BME280;10356;50.544;9.642;2023-09-19T03:32:49;97789.06;;;15.78;90.20
20394;BME280;10356;50.544;9.642;2023-09-19T03:35:16;97782.84;;;15.71;91.07
20394;BME280;10356;50.544;9.642;2023-09-19T03:37:43;97782.00;;;15.63;92.01
20394;BME280;10356;50.544;9.642;2023-09-19T03:40:10;97791.84;;;15.53;93.57
20394;BME280;10356;50.544;9.642;2023-09-19T03:42:38;97789.19;;;15.45;94.25
20394;BME280;10356;50.544;9.642;2023-09-19T03:45:07;97790.44;;;15.33;95.91
20394;BME280;10356;50.544;9.642;2023-09-19T03:47:36;97791.53;;;15.22;96.99
20394;BME280;10356;50.544;9.642;2023-09-19T03:50:03;97790.00;;;15.11;98.05
20394;BME280;10356;50.544;9.642;2023-09-19T03:52:30;97782.44;;;15.00;99.00
20394;BME280;10356;50.544;9.642;2023-09-19T03:54:56;97788.84;;;15.06;98.33
20394;BME280;10356;50.544;9.642;2023-09-19T03:57:23;97794.31;;;15.12;98.67
20394;BME280;10356;50.544;9.642;2023-09-19T03:59:49;97779.31;;;15.05;98.47
20394;BME280;10356;50.544;9.642;2023-09-19T04:02:19;97786.19;;;14.98;99.15
20394;BME280;10356;50.544;9.642;2023-09-19T04:04:48;97784.19;;;14.92;99.52
20394;BME280;10356;50.544;9.642;2023-09-19T04:07:15;97790.28;;;14.92;100.00
20394;BME280;10356;50.544;9.642;2023-09-19T04:09:41;97794.03;;;14.90;100.00
20394;BME280;10356;50.544;9.642;2023-09-19T04:12:08;97792.69;;;14.86;100.00
20394;BME280;10356;50.544;9.642;2023-09-19T04:14:34;97794.41;;;15.03;100.00
20394;BME280;10356;50.544;9.642;2023-09-19T04:17:01;97797.53;;;14.98;100.00
20394;BME280;10356;50.544;9.642;2023-09-19T04:19:29;97794.72;;;15.00;100.00
20394;BME280;10356;50.544;9.642;2023-09-19T04:21:55;97791.00;;;15.10;100.00
20394;BME280;10356;50.544;9.642;2023-09-19T04:24:22;97798.38;;;15.15;100.00
20394;BME280;10356;50.544;9.642;2023-09-19T04:26:48;97799.84;;;15.09;100.00
20394;BME280;10356;50.544;9.642;2023-09-19T04:29:14;97801.38;;;15.20;100.00
20394;BME280;10356;50.544;9.642;2023-09-19T04:31:41;97807.63;;;15.27;100.00
20394;BME280;10356;50.544;9.642;2023-09-19T04:34:10;97811.91;;;15.28;100.00
20394;BME280;10356;50.544;9.642;2023-09-19T04:36:43;97821.91;;;15.25;100.00
20394;BME280;10356;50.544;9.642;2023-09-19T04:39:10;97830.09;;;15.30;100.00
20394;BME280;10356;50.544;9.642;2023-09-19T04:41:38;97829.66;;;15.34;100.00
20394;BME280;10356;50.544;9.642;2023-09-19T04:44:06;97829.94;;;15.31;100.00
20394;BME280;10356;50.544;9.642;2023-09-19T04:46:32;97835.06;;;15.33;100.00
20394;BME280;10356;50.544;9.642;2023-09-19T04:48:59;97831.28;;;15.35;100.00
20394;BME280;10356;50.544;9.642;2023-09-19T04:51:25;97837.56;;;15.42;99.70
20394;BME280;10356;50.544;9.642;2023-09-19T04:53:55;97844.47;;;15.43;99.75
20394;BME280;10356;50.544;9.642;2023-09-19T04:56:22;97837.84;;;15.39;99.96
20394;BME280;10356;50.544;9.642;2023-09-19T04:58:49;97839.50;;;15.40;100.00
20394;BME280;10356;50.544;9.642;2023-09-19T05:01:15;97842.44;;;15.37;100.00
20394;BME280;10356;50.544;9.642;2023-09-19T05:03:41;97845.59;;;15.41;100.00
20394;BME280;10356;50.544;9.642;2023-09-19T05:06:08;97841.69;;;15.45;100.00
20394;BME280;10356;50.544;9.642;2023-09-19T05:08:34;97840.03;;;15.44;100.00
20394;BME280;10356;50.544;9.642;2023-09-19T05:11:02;97839.31;;;15.34;100.00
20394;BME280;10356;50.544;9.642;2023-09-19T05:13:29;97844.47;;;15.43;100.00
20394;BME280;10356;50.544;9.642;2023-09-19T05:15:59;97845.81;;;15.47;100.00
20394;BME280;10356;50.544;9.642;2023-09-19T05:18:26;97842.19;;;15.48;100.00
20394;BME280;10356;50.544;9.642;2023-09-19T05:20:53;97853.56;;;15.57;100.00
20394;BME280;10356;50.544;9.642;2023-09-19T05:23:20;97852.56;;;15.66;100.00
20394;BME280;10356;50.544;9.642;2023-09-19T05:25:46;97855.41;;;15.72;100.00
20394;BME280;10356;50.544;9.642;2023-09-19T05:28:15;97862.47;;;15.80;99.84
20394;BME280;10356;50.544;9.642;2023-09-19T05:30:41;97859.03;;;15.79;100.00
20394;BME280;10356;50.544;9.642;2023-09-19T05:33:09;97864.13;;;15.81;100.00
20394;BME280;10356;50.544;9.642;2023-09-19T05:35:36;97860.00;;;15.78;99.84
20394;BME280;10356;50.544;9.642;2023-09-19T05:38:07;97866.59;;;15.82;99.34
20394;BME280;10356;50.544;9.642;2023-09-19T05:40:35;97866.28;;;15.85;99.05
20394;BME280;10356;50.544;9.642;2023-09-19T05:43:03;97874.50;;;15.90;98.78
20394;BME280;10356;50.544;9.642;2023-09-19T05:45:32;97867.75;;;15.96;97.83
20394;BME280;10356;50.544;9.642;2023-09-19T05:48:08;97867.75;;;15.96;97.02
20394;BME280;10356;50.544;9.642;2023-09-19T05:50:35;97869.41;;;15.97;97.25
20394;BME280;10356;50.544;9.642;2023-09-19T05:53:01;97865.47;;;16.01;96.45
20394;BME280;10356;50.544;9.642;2023-09-19T05:55:29;97866.31;;;16.02;96.27
20394;BME280;10356;50.544;9.642;2023-09-19T05:57:56;97867.94;;;16.03;96.06
20394;BME280;10356;50.544;9.642;2023-09-19T06:00:23;97873.53;;;16.00;96.69
20394;BME280;10356;50.544;9.642;2023-09-19T06:02:55;97864.00;;;16.07;95.91
20394;BME280;10356;50.544;9.642;2023-09-19T06:05:22;97879.59;;;16.08;94.49
20394;BME280;10356;50.544;9.642;2023-09-19T06:07:49;97887.81;;;16.05;94.74
20394;BME280;10356;50.544;9.642;2023-09-19T06:10:15;97890.28;;;16.07;94.98
20394;BME280;10356;50.544;9.642;2023-09-19T06:12:43;97891.28;;;16.14;93.91
20394;BME280;10356;50.544;9.642;2023-09-19T06:15:11;97896.22;;;16.17;94.09
20394;BME280;10356;50.544;9.642;2023-09-19T06:17:41;97898.19;;;16.23;93.45
20394;BME280;10356;50.544;9.642;2023-09-19T06:20:09;97899.03;;;16.23;92.88
20394;BME280;10356;50.544;9.642;2023-09-19T06:22:40;97899.88;;;16.32;92.53
20394;BME280;10356;50.544;9.642;2023-09-19T06:25:08;97894.25;;;16.35;92.21
20394;BME280;10356;50.544;9.642;2023-09-19T06:27:36;97903.81;;;16.36;92.18
20394;BME280;10356;50.544;9.642;2023-09-19T06:30:04;97913.34;;;16.37;92.61
20394;BME280;10356;50.544;9.642;2023-09-19T06:32:31;97916.97;;;16.36;92.98
20394;BME280;10356;50.544;9.642;2023-09-19T06:34:58;97922.72;;;16.39;92.85
20394;BME280;10356;50.544;9.642;2023-09-19T06:37:28;97914.34;;;16.44;91.62
20394;BME280;10356;50.544;9.642;2023-09-19T06:39:54;97915.66;;;16.40;90.53
20394;BME280;10356;50.544;9.642;2023-09-19T06:42:22;97929.59;;;16.48;90.05
20394;BME280;10356;50.544;9.642;2023-09-19T06:44:49;97931.75;;;16.45;90.45
20394;BME280;10356;50.544;9.642;2023-09-19T06:47:15;97935.38;;;16.44;90.98
20394;BME280;10356;50.544;9.642;2023-09-19T06:49:42;97937.34;;;16.42;91.51
20394;BME280;10356;50.544;9.642;2023-09-19T06:52:10;97946.03;;;16.42;91.87
20394;BME280;10356;50.544;9.642;2023-09-19T06:54:38;97960.00;;;16.43;91.76
20394;BME280;10356;50.544;9.642;2023-09-19T06:57:05;97961.38;;;16.55;91.59
20394;BME280;10356;50.544;9.642;2023-09-19T06:59:34;97945.28;;;16.66;90.63
20394;BME280;10356;50.544;9.642;2023-09-19T07:02:01;97962.03;;;16.73;89.13
20394;BME280;10356;50.544;9.642;2023-09-19T07:04:28;97960.06;;;16.83;88.96
20394;BME280;10356;50.544;9.642;2023-09-19T07:06:54;97970.28;;;16.94;87.68
20394;BME280;10356;50.544;9.642;2023-09-19T07:09:21;97975.38;;;17.04;87.23
20394;BME280;10356;50.544;9.642;2023-09-19T07:11:49;97979.81;;;17.03;87.63
20394;BME280;10356;50.544;9.642;2023-09-19T07:14:16;97985.06;;;17.03;86.79
20394;BME280;10356;50.544;9.642;2023-09-19T07:16:42;97983.75;;;17.07;85.93
20394;BME280;10356;50.544;9.642;2023-09-19T07:19:10;97983.44;;;17.10;85.15
20394;BME280;10356;50.544;9.642;2023-09-19T07:21:36;97981.28;;;17.14;84.00
20394;BME280;10356;50.544;9.642;2023-09-19T07:24:04;97985.41;;;17.24;83.15
20394;BME280;10356;50.544;9.642;2023-09-19T07:26:33;97990.31;;;17.19;81.73
20394;BME280;10356;50.544;9.642;2023-09-19T07:29:01;97987.69;;;17.27;82.28
20394;BME280;10356;50.544;9.642;2023-09-19T07:31:29;97996.88;;;17.31;82.09
20394;BME280;10356;50.544;9.642;2023-09-19T07:33:56;97995.09;;;17.32;82.32
20394;BME280;10356;50.544;9.642;2023-09-19T07:36:22;97994.41;;;17.38;81.91
20394;BME280;10356;50.544;9.642;2023-09-19T07:38:49;97992.44;;;17.56;82.60
20394;BME280;10356;50.544;9.642;2023-09-19T07:41:16;97987.94;;;17.73;82.69
20394;BME280;10356;50.544;9.642;2023-09-19T07:43:42;98002.69;;;17.90;80.21
20394;BME280;10356;50.544;9.642;2023-09-19T07:46:11;97997.91;;;17.93;78.56
20394;BME280;10356;50.544;9.642;2023-09-19T07:48:37;98005.00;;;17.93;78.82
20394;BME280;10356;50.544;9.642;2023-09-19T07:51:06;98004.28;;;18.07;77.86
20394;BME280;10356;50.544;9.642;2023-09-19T07:53:33;98003.09;;;18.17;76.83
20394;BME280;10356;50.544;9.642;2023-09-19T07:56:05;98014.84;;;18.07;76.08
20394;BME280;10356;50.544;9.642;2023-09-19T07:58:32;98004.94;;;18.09;74.72
20394;BME280;10356;50.544;9.642;2023-09-19T08:01:04;98017.53;;;18.29;75.58
20394;BME280;10356;50.544;9.642;2023-09-19T08:03:33;98027.13;;;18.22;74.38
20394;BME280;10356;50.544;9.642;2023-09-19T08:05:59;98018.44;;;18.14;74.16
20394;BME280;10356;50.544;9.642;2023-09-19T08:08:26;98022.72;;;18.15;74.86
20394;BME280;10356;50.544;9.642;2023-09-19T08:10:53;98033.69;;;18.26;73.48
20394;BME280;10356;50.544;9.642;2023-09-19T08:13:22;98033.53;;;18.28;72.54
20394;BME280;10356;50.544;9.642;2023-09-19T08:15:48;98041.47;;;18.28;73.18
20394;BME280;10356;50.544;9.642;2023-09-19T08:18:16;98043.09;;;18.29;73.66
20394;BME280;10356;50.544;9.642;2023-09-19T08:20:49;98038.84;;;18.20;71.63
20394;BME280;10356;50.544;9.642;2023-09-19T08:23:16;98031.59;;;18.22;72.30
20394;BME280;10356;50.544;9.642;2023-09-19T08:25:43;98038.50;;;18.23;71.36
20394;BME280;10356;50.544;9.642;2023-09-19T08:28:10;98038.00;;;18.27;71.75
20394;BME280;10356;50.544;9.642;2023-09-19T08:30:37;98034.66;;;18.33;70.42
20394;BME280;10356;50.544;9.642;2023-09-19T08:33:05;98036.44;;;18.41;70.42
20394;BME280;10356;50.544;9.642;2023-09-19T08:35:33;98039.19;;;18.56;70.84
20394;BME280;10356;50.544;9.642;2023-09-19T08:38:01;98042.06;;;18.69;68.86
20394;BME280;10356;50.544;9.642;2023-09-19T08:40:29;98041.56;;;18.73;69.67
20394;BME280;10356;50.544;9.642;2023-09-19T08:42:59;98043.91;;;18.68;68.89
20394;BME280;10356;50.544;9.642;2023-09-19T08:45:26;98037.13;;;18.43;69.86
20394;BME280;10356;50.544;9.642;2023-09-19T08:48:00;98046.66;;;18.52;70.43
20394;BME280;10356;50.544;9.642;2023-09-19T08:50:31;98047.28;;;18.54;70.34
20394;BME280;10356;50.544;9.642;2023-09-19T08:53:02;98038.78;;;18.67;69.02
20394;BME280;10356;50.544;9.642;2023-09-19T08:55:33;98047.25;;;18.85;69.14
20394;BME280;10356;50.544;9.642;2023-09-19T08:58:06;98037.31;;;19.09;68.86
20394;BME280;10356;50.544;9.642;2023-09-19T09:00:36;98040.97;;;19.08;66.03
20394;BME280;10356;50.544;9.642;2023-09-19T09:03:03;98035.13;;;18.98;66.78
20394;BME280;10356;50.544;9.642;2023-09-19T09:05:32;98031.84;;;19.11;67.01
20394;BME280;10356;50.544;9.642;2023-09-19T09:08:05;98034.34;;;19.50;66.46
20394;BME280;10356;50.544;9.642;2023-09-19T09:10:32;98032.28;;;19.45;62.38
20394;BME280;10356;50.544;9.642;2023-09-19T09:12:59;98026.88;;;19.39;63.45
20394;BME280;10356;50.544;9.642;2023-09-19T09:15:25;98031.44;;;19.45;61.76
20394;BME280;10356;50.544;9.642;2023-09-19T09:17:54;98032.50;;;19.36;61.80
20394;BME280;10356;50.544;9.642;2023-09-19T09:20:22;98027.97;;;19.21;60.78
20394;BME280;10356;50.544;9.642;2023-09-19T09:22:52;98026.09;;;19.53;60.10
20394;BME280;10356;50.544;9.642;2023-09-19T09:25:21;98032.00;;;19.55;59.83
20394;BME280;10356;50.544;9.642;2023-09-19T09:27:59;98034.75;;;19.76;59.62
20394;BME280;10356;50.544;9.642;2023-09-19T09:30:33;98040.41;;;19.73;59.28
20394;BME280;10356;50.544;9.642;2023-09-19T09:33:08;98039.31;;;19.53;60.35
20394;BME280;10356;50.544;9.642;2023-09-19T09:35:36;98043.72;;;19.38;59.41
20394;BME280;10356;50.544;9.642;2023-09-19T09:38:04;98038.09;;;19.41;58.76
20394;BME280;10356;50.544;9.642;2023-09-19T09:40:45;98042.03;;;19.74;59.21
20394;BME280;10356;50.544;9.642;2023-09-19T09:43:28;98044.59;;;19.82;59.04
20394;BME280;10356;50.544;9.642;2023-09-19T09:46:11;98054.38;;;20.10;58.97
20394;BME280;10356;50.544;9.642;2023-09-19T09:49:10;98045.69;;;20.02;56.07
20394;BME280;10356;50.544;9.642;2023-09-19T09:51:59;98061.31;;;19.82;55.65
20394;BME280;10356;50.544;9.642;2023-09-19T09:54:27;98065.41;;;19.85;56.24
20394;BME280;10356;50.544;9.642;2023-09-19T09:57:01;98062.84;;;19.77;53.63
20394;BME280;10356;50.544;9.642;2023-09-19T10:00:00;98070.06;;;19.83;54.17
20394;BME280;10356;50.544;9.642;2023-09-19T10:02:42;98056.81;;;20.12;53.16
20394;BME280;10356;50.544;9.642;2023-09-19T10:05:12;98064.44;;;20.30;52.14
20394;BME280;10356;50.544;9.642;2023-09-19T10:07:47;98072.34;;;20.44;52.04
20394;BME280;10356;50.544;9.642;2023-09-19T10:10:15;98066.38;;;20.57;52.49
20394;BME280;10356;50.544;9.642;2023-09-19T10:12:48;98069.09;;;20.78;51.19
20394;BME280;10356;50.544;9.642;2023-09-19T10:15:17;98071.28;;;20.74;52.22
20394;BME280;10356;50.544;9.642;2023-09-19T10:17:45;98069.41;;;21.04;51.29
20394;BME280;10356;50.544;9.642;2023-09-19T10:20:13;98067.06;;;21.01;50.54
20394;BME280;10356;50.544;9.642;2023-09-19T10:23:00;98068.75;;;21.23;52.21
20394;BME280;10356;50.544;9.642;2023-09-19T10:25:28;98067.19;;;21.29;49.74
20394;BME280;10356;50.544;9.642;2023-09-19T10:27:57;98071.94;;;20.98;50.53
20394;BME280;10356;50.544;9.642;2023-09-19T10:30:28;98071.09;;;21.12;50.87
20394;BME280;10356;50.544;9.642;2023-09-19T10:32:59;98074.53;;;21.33;50.99
20394;BME280;10356;50.544;9.642;2023-09-19T10:35:27;98069.28;;;20.98;50.97
20394;BME280;10356;50.544;9.642;2023-09-19T10:37:55;98076.09;;;20.85;51.14
20394;BME280;10356;50.544;9.642;2023-09-19T10:40:24;98071.69;;;20.92;51.27
20394;BME280;10356;50.544;9.642;2023-09-19T10:43:00;98079.09;;;21.18;50.62
20394;BME280;10356;50.544;9.642;2023-09-19T10:45:31;98070.59;;;21.02;50.65
20394;BME280;10356;50.544;9.642;2023-09-19T10:47:58;98071.47;;;21.30;50.25
20394;BME280;10356;50.544;9.642;2023-09-19T10:50:26;98070.50;;;21.58;50.18
20394;BME280;10356;50.544;9.642;2023-09-19T10:52:59;98067.06;;;21.64;50.31
20394;BME280;10356;50.544;9.642;2023-09-19T10:55:30;98070.63;;;21.50;50.26
20394;BME280;10356;50.544;9.642;2023-09-19T10:57:59;98084.38;;;21.39;50.78
20394;BME280;10356;50.544;9.642;2023-09-19T11:00:30;98075.78;;;21.31;50.57
20394;BME280;10356;50.544;9.642;2023-09-19T11:03:20;98069.44;;;21.53;50.15
20394;BME280;10356;50.544;9.642;2023-09-19T11:06:05;98073.28;;;21.78;49.06
20394;BME280;10356;50.544;9.642;2023-09-19T11:08:57;98070.75;;;21.91;48.50
20394;BME280;10356;50.544;9.642;2023-09-19T11:11:43;98069.94;;;21.69;47.43
20394;BME280;10356;50.544;9.642;2023-09-19T11:14:37;98066.66;;;21.67;48.14
20394;BME280;10356;50.544;9.642;2023-09-19T11:20:23;98055.03;;;22.30;47.41
20394;BME280;10356;50.544;9.642;2023-09-19T11:23:18;98061.78;;;22.33;46.55
20394;BME280;10356;50.544;9.642;2023-09-19T11:25:47;98049.06;;;22.63;45.27
20394;BME280;10356;50.544;9.642;2023-09-19T11:28:33;98044.06;;;22.46;44.42
20394;BME280;10356;50.544;9.642;2023-09-19T11:34:46;98048.34;;;22.41;44.48
20394;BME280;10356;50.544;9.642;2023-09-19T11:40:44;98061.41;;;22.42;44.78
20394;BME280;10356;50.544;9.642;2023-09-19T11:43:31;98041.00;;;22.43;45.17
20394;BME280;10356;50.544;9.642;2023-09-19T11:46:06;98052.78;;;22.75;46.27
20394;BME280;10356;50.544;9.642;2023-09-19T11:48:32;98054.66;;;22.87;44.58
20394;BME280;10356;50.544;9.642;2023-09-19T11:51:11;98046.47;;;22.89;43.92
20394;BME280;10356;50.544;9.642;2023-09-19T11:53:45;98051.66;;;23.16;44.05
20394;BME280;10356;50.544;9.642;2023-09-19T11:56:14;98050.94;;;22.62;43.34
20394;BME280;10356;50.544;9.642;2023-09-19T11:58:43;98055.44;;;22.68;44.43
20394;BME280;10356;50.544;9.642;2023-09-19T12:01:12;98052.06;;;22.53;44.14
20394;BME280;10356;50.544;9.642;2023-09-19T12:03:46;98049.94;;;22.29;45.02
20394;BME280;10356;50.544;9.642;2023-09-19T12:06:16;98044.03;;;21.93;45.69
20394;BME280;10356;50.544;9.642;2023-09-19T12:08:44;98045.00;;;21.85;46.72
20394;BME280;10356;50.544;9.642;2023-09-19T12:11:16;98050.47;;;21.84;45.88
20394;BME280;10356;50.544;9.642;2023-09-19T12:13:43;98056.00;;;21.82;45.32
20394;BME280;10356;50.544;9.642;2023-09-19T12:16:12;98054.91;;;21.77;45.85
20394;BME280;10356;50.544;9.642;2023-09-19T12:18:40;98055.53;;;21.79;45.83
20394;BME280;10356;50.544;9.642;2023-09-19T12:21:07;98052.88;;;21.79;45.00
20394;BME280;10356;50.544;9.642;2023-09-19T12:23:38;98051.53;;;21.61;46.07
20394;BME280;10356;50.544;9.642;2023-09-19T12:26:07;98054.47;;;21.73;46.22
20394;BME280;10356;50.544;9.642;2023-09-19T12:28:41;98055.28;;;21.73;45.91
20394;BME280;10356;50.544;9.642;2023-09-19T12:31:08;98057.97;;;22.01;46.39
20394;BME280;10356;50.544;9.642;2023-09-19T12:33:36;98060.28;;;22.17;44.71
20394;BME280;10356;50.544;9.642;2023-09-19T12:36:19;98048.16;;;22.02;44.76
20394;BME280;10356;50.544;9.642;2023-09-19T12:38:51;98058.19;;;21.79;45.44
20394;BME280;10356;50.544;9.642;2023-09-19T12:41:20;98053.47;;;22.02;45.42
20394;BME280;10356;50.544;9.642;2023-09-19T12:43:48;98048.50;;;21.37;45.40
20394;BME280;10356;50.544;9.642;2023-09-19T12:46:14;98040.69;;;21.08;46.01
20394;BME280;10356;50.544;9.642;2023-09-19T12:48:46;98039.56;;;21.44;44.91
20394;BME280;10356;50.544;9.642;2023-09-19T12:51:13;98032.31;;;21.53;44.62
20394;BME280;10356;50.544;9.642;2023-09-19T12:53:42;98025.81;;;21.62;44.46
20394;BME280;10356;50.544;9.642;2023-09-19T12:56:12;98019.28;;;21.86;43.78
20394;BME280;10356;50.544;9.642;2023-09-19T12:58:50;98024.88;;;21.97;43.46
20394;BME280;10356;50.544;9.642;2023-09-19T13:01:19;98033.13;;;22.15;43.00
20394;BME280;10356;50.544;9.642;2023-09-19T13:04:12;98034.38;;;22.19;43.34
20394;BME280;10356;50.544;9.642;2023-09-19T13:06:40;98027.00;;;22.15;43.49
20394;BME280;10356;50.544;9.642;2023-09-19T13:09:09;98026.63;;;22.18;43.43
20394;BME280;10356;50.544;9.642;2023-09-19T13:11:38;98035.22;;;22.26;42.96
20394;BME280;10356;50.544;9.642;2023-09-19T13:14:17;98032.72;;;22.18;42.58
20394;BME280;10356;50.544;9.642;2023-09-19T13:16:55;98033.22;;;22.35;42.93
20394;BME280;10356;50.544;9.642;2023-09-19T13:19:41;98028.97;;;22.06;42.81
20394;BME280;10356;50.544;9.642;2023-09-19T13:22:37;98020.16;;;21.65;43.64